Time;durP1;ratioP1;P1;durP2;ratioP2;P2;SDS_P1;SDS_P2;PMS_P1;PMS_P2;Temp;Humidity;BMP_temperature;BMP_pressure;BME280_temperature;BME280_humidity;BME280_pressure;Samples;Min_cycle;Max_cycle;Signal;HPM_P1;HPM_P2
2022/10/11 00:00:18;;;;;;;21.85;3.45;;;17.40;67.70;;;;;;7331202;19;20010;-82
2022/10/11 00:20:19;;;;;;;13.88;3.08;;;17.30;67.20;;;;;;7386490;19;20022;-81
2022/10/11 00:27:27;;;;;;;19.38;2.70;;;17.30;67.10;;;;;;7179086;19;2004526;-82
2022/10/11 02:09:02;;;;;;;17.65;2.30;;;16.60;64.80;;;;;;7279487;19;2004396;-82
2022/10/11 02:15:22;;;;;;;12.40;2.38;;;16.60;64.70;;;;;;7378964;19;20021;-81
2022/10/11 02:18:07;;;;;;;12.60;2.38;;;16.60;64.80;;;;;;7336228;19;20032;-81
2022/10/11 02:21:06;;;;;;;20.73;2.20;;;16.60;64.50;;;;;;7375529;19;20031;-82
2022/10/11 02:24:30;;;;;;;15.65;2.25;;;16.60;64.80;;;;;;7290686;19;20048;-82
2022/10/11 02:27:41;;;;;;;23.45;3.03;;;16.60;64.70;;;;;;7400646;19;20321;-82
2022/10/11 02:40:31;;;;;;;13.05;2.90;;;16.70;64.50;;;;;;7383928;19;20021;-81
2022/10/11 03:40:13;;;;;;;12.00;2.40;;;16.30;63.60;;;;;;7336933;19;20024;-83
2022/10/11 03:43:02;;;;;;;15.13;2.65;;;16.10;63.70;;;;;;7379578;19;20022;-83
2022/10/11 03:45:59;;;;;;;17.42;2.90;;;16.20;63.70;;;;;;7383076;19;20018;-83
2022/10/11 03:52:19;;;;;;;16.75;3.03;;;16.20;63.50;;;;;;7382222;19;20026;-81
2022/10/11 03:55:32;;;;;;;20.35;2.30;;;16.20;63.40;;;;;;7343238;19;20035;-82
2022/10/11 03:59:00;;;;;;;17.25;3.13;;;16.20;64.30;;;;;;7381906;19;20024;-83
2022/10/11 04:02:31;;;;;;;17.33;2.00;;;16.20;63.30;;;;;;7381284;19;20507;-82
2022/10/11 06:08:21;;;;;;;22.65;3.95;;;15.30;64.80;;;;;;7396397;19;20014;-82
2022/10/11 06:11:27;;;;;;;15.80;2.35;;;15.20;64.80;;;;;;7349861;19;20022;-82
2022/10/11 06:28:29;;;;;;;18.73;3.20;;;15.30;64.70;;;;;;7371589;19;20475;-81
2022/10/11 06:31:05;;;;;;;15.15;3.00;;;15.30;64.80;;;;;;7376665;19;20015;-81
2022/10/11 06:44:15;;;;;;;23.55;3.00;;;15.40;64.30;;;;;;7378820;19;20013;-81
2022/10/11 06:46:47;;;;;;;11.88;2.70;;;15.40;64.10;;;;;;7397445;19;20116;-83
2022/10/11 06:49:31;;;;;;;12.15;2.28;;;15.50;64.10;;;;;;7378905;19;20034;-84
2022/10/11 06:52:07;;;;;;;20.77;3.30;;;15.50;64.10;;;;;;7382093;19;20023;-86
2022/10/11 06:54:37;;;;;;;17.38;2.95;;;15.50;65.40;;;;;;7380366;19;20015;-77
2022/10/11 06:57:11;;;;;;;18.90;3.00;;;15.60;64.40;;;;;;7374219;19;20019;-77
2022/10/11 07:02:39;;;;;;;21.17;3.33;;;15.60;64.60;;;;;;7380588;19;20029;-83
2022/10/11 07:05:33;;;;;;;18.45;3.30;;;15.70;63.50;;;;;;7412958;19;20026;-90
2022/10/11 07:08:11;;;;;;;15.75;3.05;;;15.70;63.30;;;;;;7282526;19;2004489;-83
2022/10/11 07:10:50;;;;;;;18.15;3.10;;;15.70;63.20;;;;;;7398107;19;20050;-82
2022/10/11 07:13:41;;;;;;;13.40;2.45;;;15.80;63.20;;;;;;7382349;19;20315;-82
2022/10/11 07:16:16;;;;;;;19.45;2.95;;;15.70;63.00;;;;;;7385049;19;20741;-82
2022/10/11 07:19:07;;;;;;;26.08;3.50;;;15.80;62.90;;;;;;7381993;19;20014;-81
2022/10/11 07:21:47;;;;;;;18.27;3.15;;;15.80;62.90;;;;;;7385582;19;20111;-82
2022/10/11 07:24:18;;;;;;;20.08;3.33;;;15.80;62.50;;;;;;7383710;19;20039;-82
2022/10/11 07:27:02;;;;;;;13.70;2.87;;;15.80;62.50;;;;;;7385133;19;20032;-82
2022/10/11 07:30:56;;;;;;;17.00;3.33;;;15.80;62.80;;;;;;7375052;19;20256;-83
2022/10/11 07:43:37;;;;;;;13.90;3.22;;;15.90;62.80;;;;;;7370692;19;20022;-81
2022/10/11 08:07:29;;;;;;;32.53;3.00;;;16.10;61.90;;;;;;7374631;19;20809;-81
2022/10/11 08:11:03;;;;;;;25.65;3.03;;;16.10;61.90;;;;;;7375671;19;20018;-81
2022/10/11 08:13:46;;;;;;;12.63;2.78;;;16.20;61.60;;;;;;7376780;19;20015;-82
2022/10/11 08:20:56;;;;;;;16.92;3.10;;;16.30;61.50;;;;;;7365928;19;20063;-82
2022/10/11 08:27:10;;;;;;;13.27;2.80;;;16.40;60.50;;;;;;7331041;19;20027;-80
2022/10/11 08:57:11;;;;;;;11.88;2.63;;;16.60;58.60;;;;;;7385317;19;20038;-83
2022/10/11 09:10:20;;;;;;;14.45;2.58;;;16.80;59.00;;;;;;7383817;19;20014;-80
2022/10/11 09:13:05;;;;;;;14.07;2.80;;;16.80;58.60;;;;;;7382531;19;20418;-79
2022/10/11 09:16:36;;;;;;;16.40;3.13;;;16.70;58.60;;;;;;7380596;19;20014;-82
2022/10/11 09:23:56;;;;;;;18.30;3.35;;;16.30;59.20;;;;;;7364167;19;20014;-81
2022/10/11 09:30:20;;;;;;;15.75;3.17;;;16.10;59.60;;;;;;7387358;19;20026;-82
2022/10/11 09:50:24;;;;;;;15.40;3.55;;;16.50;58.40;;;;;;7356627;19;20034;-86
2022/10/11 10:00:03;;;;;;;15.63;3.28;;;16.40;58.80;;;;;;7382305;19;20011;-80
2022/10/11 10:10:00;;;;;;;19.65;3.55;;;16.30;59.10;;;;;;7331424;19;20589;-81
2022/10/11 11:17:29;;;;;;;13.52;3.38;;;17.30;58.80;;;;;;7291896;19;2004407;-83
2022/10/11 11:20:23;;;;;;;9.30;2.78;;;17.50;58.30;;;;;;7417240;19;20023;-84
2022/10/11 11:23:37;;;;;;;10.70;3.40;;;17.60;58.50;;;;;;7385936;19;20055;-84
2022/10/11 11:27:03;;;;;;;12.93;3.33;;;17.50;58.50;;;;;;7284950;19;2004294;-92
2022/10/11 12:33:04;;;;;;;12.93;3.65;;;19.30;56.50;;;;;;7391943;19;20052;-85
2022/10/11 12:36:00;;;;;;;10.13;3.85;;;19.40;56.10;;;;;;7390673;19;20006;-87
2022/10/11 12:38:40;;;;;;;22.25;3.72;;;19.30;55.60;;;;;;7388450;19;20014;-87
2022/10/11 12:54:52;;;;;;;12.50;4.72;;;19.80;56.70;;;;;;7376022;19;20064;-90
2022/10/11 12:57:58;;;;;;;13.02;4.05;;;19.80;56.60;;;;;;7399271;19;20022;-88
2022/10/11 13:00:30;;;;;;;11.13;4.00;;;20.00;56.20;;;;;;7400117;19;20018;-91
2022/10/11 13:03:04;;;;;;;16.52;4.07;;;20.10;55.40;;;;;;7398240;19;20039;-91
2022/10/11 13:05:43;;;;;;;16.05;3.85;;;20.10;55.00;;;;;;7398846;19;20051;-92
2022/10/11 13:08:17;;;;;;;12.15;4.38;;;20.20;55.40;;;;;;7394774;19;20035;-89
2022/10/11 13:10:55;;;;;;;11.98;3.65;;;20.30;55.70;;;;;;7414220;19;20021;-92
2022/10/11 13:13:30;;;;;;;15.32;4.20;;;20.40;55.80;;;;;;7380631;19;20397;-91
2022/10/11 13:16:02;;;;;;;13.77;4.47;;;20.50;56.00;;;;;;7387385;19;20039;-88
2022/10/11 13:23:42;;;;;;;13.68;5.43;;;20.70;55.60;;;;;;7380002;19;20047;-90
2022/10/11 13:26:15;;;;;;;12.85;5.68;;;20.70;55.20;;;;;;7395293;19;20039;-87
2022/10/11 13:28:45;;;;;;;15.68;5.00;;;20.80;55.20;;;;;;7410761;19;20014;-90
2022/10/11 13:37:20;;;;;;;14.25;5.00;;;20.90;54.80;;;;;;7355601;19;20023;-91
2022/10/11 13:39:54;;;;;;;14.50;4.97;;;20.90;54.80;;;;;;7381646;19;20014;-90
2022/10/11 13:48:30;;;;;;;9.53;3.10;;;21.00;54.10;;;;;;7394220;19;20010;-91
2022/10/11 13:53:36;;;;;;;11.40;4.28;;;21.10;53.70;;;;;;7342393;19;20034;-90
2022/10/11 13:56:11;;;;;;;16.38;4.32;;;21.20;53.60;;;;;;7381446;19;20025;-88
2022/10/11 13:58:46;;;;;;;9.85;4.32;;;21.20;53.60;;;;;;7407254;19;20025;-91
2022/10/11 14:01:22;;;;;;;14.55;3.97;;;21.20;53.60;;;;;;7387410;19;20034;-92
2022/10/11 14:04:00;;;;;;;12.98;4.13;;;21.20;53.60;;;;;;7398429;19;20032;-88
2022/10/11 14:06:42;;;;;;;10.73;3.97;;;21.20;53.10;;;;;;7400054;19;20011;-91
2022/10/11 14:09:24;;;;;;;11.18;3.72;;;21.20;52.90;;;;;;7393597;19;20011;-87
2022/10/11 14:11:54;;;;;;;9.15;3.65;;;21.20;53.00;;;;;;7384609;19;20030;-90
2022/10/11 14:14:43;;;;;;;10.82;3.97;;;21.40;53.50;;;;;;7385618;19;20041;-92
2022/10/11 14:17:18;;;;;;;10.48;3.40;;;21.30;53.20;;;;;;7395058;19;20018;-92
2022/10/11 14:23:13;;;;;;;10.27;3.47;;;21.30;51.90;;;;;;7377774;19;20011;-89
2022/10/11 14:25:42;;;;;;;10.73;3.00;;;21.20;52.50;;;;;;7401743;19;20029;-90
2022/10/11 14:28:40;;;;;;;11.80;2.92;;;21.30;52.70;;;;;;7383516;19;20678;-91
2022/10/11 14:31:21;;;;;;;8.15;2.72;;;21.20;52.40;;;;;;7377551;19;20319;-83
2022/10/11 14:33:50;;;;;;;12.82;4.93;;;21.40;52.30;;;;;;7382230;19;20047;-83
2022/10/11 14:37:16;;;;;;;17.30;3.75;;;21.40;52.00;;;;;;7336305;19;20031;-85
2022/10/11 14:39:49;;;;;;;7.90;3.00;;;21.40;51.80;;;;;;7389578;19;20504;-86
2022/10/11 14:42:20;;;;;;;11.40;3.05;;;21.50;51.90;;;;;;7391248;19;20014;-86
2022/10/11 14:44:53;;;;;;;10.43;3.03;;;21.50;52.50;;;;;;7392108;19;20019;-90
2022/10/11 17:01:38;;;;;;;11.38;2.90;;;18.30;60.40;;;;;;7393077;19;20125;-84
2022/10/11 17:05:12;;;;;;;10.18;2.88;;;18.30;60.50;;;;;;7407013;19;20564;-85
2022/10/11 17:14:36;;;;;;;9.00;3.10;;;17.90;61.50;;;;;;7383088;19;20014;-83
2022/10/11 17:17:08;;;;;;;15.68;3.38;;;17.80;61.80;;;;;;7385571;19;20030;-83
2022/10/11 17:19:44;;;;;;;16.15;3.63;;;17.70;61.90;;;;;;7402791;19;20038;-82
2022/10/11 17:22:17;;;;;;;16.13;3.28;;;17.70;62.10;;;;;;7376510;19;20021;-83
2022/10/11 17:24:47;;;;;;;14.02;3.38;;;17.60;62.20;;;;;;7379241;19;20026;-83
2022/10/11 17:27:16;;;;;;;6.97;2.92;;;17.60;62.20;;;;;;7374633;19;20022;-81
2022/10/11 17:29:44;;;;;;;9.35;3.40;;;17.60;62.30;;;;;;7373718;19;20014;-79
2022/10/11 17:32:16;;;;;;;14.02;3.95;;;17.60;62.50;;;;;;7374048;19;20035;-80
2022/10/11 17:34:44;;;;;;;;;;;17.60;62.70;;;;;;7393914;19;20331;-81
2022/10/11 17:37:13;;;;;;;12.07;3.78;;;17.70;62.80;;;;;;7371780;19;20005;-80
2022/10/11 17:40:01;;;;;;;8.32;3.08;;;17.60;62.60;;;;;;7376356;19;20410;-88
2022/10/11 17:42:30;;;;;;;11.07;3.63;;;17.50;62.40;;;;;;7374346;19;20018;-81
2022/10/11 17:44:59;;;;;;;9.43;3.25;;;17.50;62.40;;;;;;7375159;19;20033;-81
2022/10/11 17:47:36;;;;;;;10.63;3.28;;;17.50;62.50;;;;;;7379480;19;20010;-87
2022/10/11 17:50:05;;;;;;;11.18;3.40;;;17.40;62.70;;;;;;7398442;19;20035;-89
2022/10/11 17:52:34;;;;;;;10.95;3.55;;;17.30;62.80;;;;;;7407674;19;20039;-86
2022/10/11 17:55:04;;;;;;;13.82;3.00;;;17.20;62.90;;;;;;7378274;19;20129;-90
2022/10/11 17:57:35;;;;;;;13.23;3.17;;;17.20;63.10;;;;;;7371699;19;20025;-89
2022/10/11 18:00:30;;;;;;;;;;;17.10;63.30;;;;;;7341935;19;20018;-92
2022/10/11 18:03:06;;;;;;;7.47;3.30;;;17.20;63.50;;;;;;7406778;19;19965;-91
2022/10/11 18:05:40;;;;;;;15.07;3.53;;;17.10;63.50;;;;;;7402617;19;20127;-87
2022/10/11 18:08:10;;;;;;;9.00;3.63;;;17.10;63.80;;;;;;7383640;19;20437;-88
2022/10/11 18:10:40;;;;;;;10.45;3.55;;;17.00;63.80;;;;;;7409648;19;20018;-88
2022/10/11 18:13:09;;;;;;;15.48;4.00;;;17.10;63.90;;;;;;7385900;19;20046;-87
2022/10/11 18:15:39;;;;;;;13.95;4.60;;;17.10;64.00;;;;;;7391899;19;20014;-88
2022/10/11 18:18:21;;;;;;;11.68;4.20;;;17.10;64.10;;;;;;7388159;19;20018;-88
2022/10/11 18:20:52;;;;;;;17.85;3.47;;;17.00;64.10;;;;;;7388951;19;20475;-86
2022/10/11 18:23:21;;;;;;;22.17;4.10;;;17.10;63.90;;;;;;7382861;19;20023;-87
2022/10/11 18:25:50;;;;;;;10.35;3.58;;;17.00;63.60;;;;;;7404736;19;20006;-88
2022/10/11 18:28:19;;;;;;;12.98;3.70;;;17.00;63.60;;;;;;7379709;19;20031;-87
2022/10/11 18:30:49;;;;;;;21.98;4.40;;;17.00;63.80;;;;;;7380689;19;20022;-88
2022/10/11 18:33:20;;;;;;;17.67;5.90;;;16.90;63.90;;;;;;7385805;19;20026;-88
2022/10/11 18:35:49;;;;;;;;;;;16.90;64.30;;;;;;7387037;19;20043;-87
2022/10/11 18:38:18;;;;;;;24.55;6.85;;;17.00;64.80;;;;;;7380732;19;25568;-87
2022/10/11 18:40:46;;;;;;;12.98;4.88;;;16.90;64.50;;;;;;7399767;19;20417;-87
2022/10/11 18:43:15;;;;;;;11.95;4.60;;;16.80;64.50;;;;;;7380921;19;20097;-88
2022/10/11 18:45:44;;;;;;;12.20;4.25;;;16.80;64.60;;;;;;7384778;19;20023;-88
2022/10/11 18:48:13;;;;;;;16.48;4.68;;;16.80;64.70;;;;;;7392486;19;20014;-88
2022/10/11 18:50:45;;;;;;;12.27;4.90;;;16.80;64.70;;;;;;7383583;19;20019;-89
2022/10/11 18:53:13;;;;;;;;;;;16.70;64.70;;;;;;7386064;19;20428;-88
2022/10/11 18:55:42;;;;;;;11.32;4.80;;;16.70;64.80;;;;;;7406614;19;19922;-89
2022/10/11 18:58:11;;;;;;;13.25;4.95;;;16.70;64.80;;;;;;7379406;19;20011;-88
2022/10/11 19:00:40;;;;;;;13.98;4.10;;;16.60;64.80;;;;;;7381796;19;20011;-87
2022/10/11 19:03:08;;;;;;;15.57;4.88;;;16.60;65.00;;;;;;7379374;19;20894;-88
2022/10/11 19:05:40;;;;;;;10.60;4.50;;;16.60;65.00;;;;;;7381756;19;20022;-87
2022/10/11 19:08:11;;;;;;;11.07;4.90;;;16.60;65.00;;;;;;7383854;19;20006;-87
2022/10/11 19:10:40;;;;;;;11.52;4.82;;;16.60;64.90;;;;;;7404241;19;20043;-87
2022/10/11 19:13:09;;;;;;;14.82;4.93;;;16.60;65.00;;;;;;7381792;19;20015;-88
2022/10/11 19:15:38;;;;;;;14.15;4.55;;;16.60;65.10;;;;;;7385367;19;20014;-88
2022/10/11 19:18:07;;;;;;;16.33;5.88;;;16.60;65.10;;;;;;7382622;19;20057;-88
2022/10/11 19:20:37;;;;;;;13.82;4.95;;;16.60;64.90;;;;;;7378905;19;20027;-91
2022/10/11 19:36:14;;;;;;;16.45;6.78;;;16.50;65.10;;;;;;7062722;19;6884593;-86
2022/10/11 19:38:47;;;;;;;15.43;6.35;;;16.40;64.90;;;;;;7413483;19;20452;-86
2022/10/11 19:41:17;;;;;;;18.58;6.45;;;16.40;65.00;;;;;;7418970;19;20025;-87
2022/10/11 19:43:47;;;;;;;17.83;6.45;;;16.40;65.00;;;;;;7446837;19;20029;-86
2022/10/11 19:46:19;;;;;;;15.27;6.93;;;16.40;65.00;;;;;;7421835;19;20042;-84
2022/10/11 19:48:49;;;;;;;22.85;7.28;;;16.40;64.90;;;;;;7423305;19;20025;-87
2022/10/11 19:51:36;;;;;;;18.90;7.60;;;16.40;64.80;;;;;;7417316;19;20010;-87
2022/10/11 19:54:20;;;;;;;18.73;6.90;;;16.40;64.90;;;;;;7409952;19;20038;-88
2022/10/11 20:03:41;;;;;;;22.45;8.65;;;16.40;64.80;;;;;;7264159;19;20006;-86
2022/10/11 20:16:46;;;;;;;11.77;5.85;;;16.40;64.00;;;;;;7411276;19;20027;-85
2022/10/11 20:19:25;;;;;;;17.98;5.50;;;16.40;64.10;;;;;;7409197;19;20061;-83
2022/10/11 20:21:53;;;;;;;12.63;5.65;;;16.40;64.20;;;;;;7417393;19;20010;-88
2022/10/11 20:24:27;;;;;;;12.02;5.30;;;16.40;64.20;;;;;;7417349;19;20006;-84
2022/10/11 20:26:59;;;;;;;12.35;5.57;;;16.30;64.40;;;;;;7405183;19;20086;-86
2022/10/11 20:29:28;;;;;;;22.23;6.18;;;16.40;64.40;;;;;;7422758;19;20023;-88
2022/10/11 20:32:00;;;;;;;15.43;6.85;;;16.40;64.30;;;;;;7438946;19;20018;-84
2022/10/11 20:34:29;;;;;;;;;;;16.30;64.30;;;;;;7413410;19;20017;-86
2022/10/11 20:36:58;;;;;;;20.92;6.10;;;16.30;64.30;;;;;;7392733;19;19923;-88
2022/10/11 20:39:27;;;;;;;22.50;5.70;;;16.30;64.10;;;;;;7395320;19;20015;-89
2022/10/11 20:41:56;;;;;;;13.07;4.97;;;16.20;64.20;;;;;;7400418;19;20018;-89
2022/10/11 20:44:25;;;;;;;16.65;6.55;;;16.20;64.30;;;;;;7396520;19;20022;-87
2022/10/11 20:46:56;;;;;;;12.65;4.85;;;16.20;64.40;;;;;;7417911;19;20014;-88
2022/10/11 20:49:27;;;;;;;13.35;5.18;;;16.10;65.20;;;;;;7393551;19;20011;-88
2022/10/11 20:52:08;;;;;;;15.32;5.60;;;16.10;64.40;;;;;;7393314;19;20035;-88
2022/10/11 20:54:39;;;;;;;12.57;5.15;;;16.10;64.60;;;;;;7394141;19;20054;-87
2022/10/11 20:57:08;;;;;;;27.25;6.25;;;16.00;64.60;;;;;;7391452;19;20014;-88
2022/10/11 20:59:37;;;;;;;15.13;4.90;;;16.00;65.00;;;;;;7391236;19;20033;-87
2022/10/11 21:02:05;;;;;;;14.70;5.25;;;16.00;65.00;;;;;;7389267;19;20010;-87
2022/10/11 21:04:41;;;;;;;12.32;5.50;;;15.90;64.70;;;;;;7413256;19;20014;-87
2022/10/11 21:07:10;;;;;;;14.18;5.30;;;15.90;64.70;;;;;;7398163;19;20044;-87
2022/10/11 21:09:38;;;;;;;13.10;5.20;;;15.90;64.60;;;;;;7399600;19;20022;-87
2022/10/11 21:12:08;;;;;;;19.67;5.28;;;15.90;64.60;;;;;;7395123;19;20018;-88
2022/10/11 21:14:37;;;;;;;12.55;5.30;;;15.90;64.60;;;;;;7385753;19;20019;-88
2022/10/11 21:17:05;;;;;;;18.90;6.00;;;15.90;64.50;;;;;;7389524;19;20018;-87
2022/10/11 21:19:39;;;;;;;13.73;5.80;;;15.90;64.50;;;;;;7415687;19;20079;-87
2022/10/11 21:22:08;;;;;;;16.10;5.70;;;15.80;64.60;;;;;;7391603;19;20018;-86
2022/10/11 21:24:37;;;;;;;13.75;7.00;;;15.80;64.70;;;;;;7387871;19;20022;-87
2022/10/11 21:27:07;;;;;;;23.25;5.90;;;15.80;64.70;;;;;;7384784;19;20046;-86
2022/10/11 21:29:38;;;;;;;15.48;6.22;;;15.80;64.40;;;;;;7386195;19;20341;-87
2022/10/11 21:32:06;;;;;;;15.57;5.70;;;15.80;64.30;;;;;;7385220;19;20127;-87
2022/10/11 21:34:38;;;;;;;13.55;6.00;;;15.80;64.40;;;;;;7408161;19;19999;-84
2022/10/11 21:37:07;;;;;;;29.25;15.57;;;15.80;64.60;;;;;;7392749;19;20045;-91
2022/10/11 21:39:36;;;;;;;80.70;42.08;;;15.80;64.60;;;;;;7392668;19;20014;-87
2022/10/11 21:42:14;;;;;;;22.05;9.63;;;15.70;64.50;;;;;;7382606;19;20432;-91
2022/10/11 21:44:43;;;;;;;13.90;6.63;;;15.80;64.80;;;;;;7381680;19;20037;-91
2022/10/11 21:47:13;;;;;;;16.25;6.28;;;15.80;64.50;;;;;;7374246;19;20026;-91
2022/10/11 21:49:45;;;;;;;16.65;6.63;;;15.70;64.50;;;;;;7404411;19;20014;-90
2022/10/11 21:52:27;;;;;;;14.45;6.97;;;15.70;64.50;;;;;;7384924;19;20066;-91
2022/10/11 21:54:56;;;;;;;18.80;7.55;;;15.70;64.40;;;;;;7388086;19;20019;-90
2022/10/11 21:57:26;;;;;;;18.05;6.40;;;15.70;64.20;;;;;;7390414;19;20014;-91
2022/10/11 21:59:55;;;;;;;13.88;6.25;;;15.70;64.20;;;;;;7387738;19;20025;-91
2022/10/11 22:02:25;;;;;;;14.30;6.05;;;15.70;64.10;;;;;;7389382;19;20040;-90
2022/10/11 22:05:02;;;;;;;14.38;6.43;;;15.70;64.10;;;;;;7409130;19;20029;-90
2022/10/11 22:07:35;;;;;;;19.23;6.50;;;15.60;64.20;;;;;;7381181;19;20025;-90
2022/10/11 22:10:05;;;;;;;15.10;6.65;;;15.60;64.40;;;;;;7378404;19;20018;-91
2022/10/11 22:12:44;;;;;;;16.83;6.03;;;15.50;64.40;;;;;;7378949;19;20078;-87
2022/10/11 22:15:13;;;;;;;22.25;6.55;;;15.50;65.30;;;;;;7391580;19;20022;-90
2022/10/11 22:20:31;;;;;;;16.92;5.93;;;15.40;64.50;;;;;;7389065;19;20037;-88
2022/10/11 22:38:01;;;;;;;14.10;6.88;;;15.20;64.70;;;;;;7423542;19;20006;-87
2022/10/11 22:40:30;;;;;;;15.18;6.13;;;15.20;64.70;;;;;;7398327;19;20442;-86
2022/10/11 22:42:59;;;;;;;14.98;5.47;;;15.20;64.80;;;;;;7388705;19;20018;-85
2022/10/11 22:45:28;;;;;;;12.00;4.57;;;15.10;64.80;;;;;;7387505;19;20015;-85
2022/10/11 22:47:56;;;;;;;13.45;5.10;;;15.20;64.70;;;;;;7384877;19;20018;-85
2022/10/11 22:50:25;;;;;;;14.98;5.63;;;15.10;64.50;;;;;;7381035;19;20022;-85
2022/10/11 22:52:54;;;;;;;13.38;5.03;;;15.20;64.50;;;;;;7400789;19;20018;-85
2022/10/11 22:55:25;;;;;;;13.85;4.90;;;15.20;64.50;;;;;;7378618;19;20027;-84
2022/10/11 22:57:55;;;;;;;17.77;5.10;;;15.20;64.20;;;;;;7379794;19;20014;-85
2022/10/11 23:00:24;;;;;;;16.25;5.30;;;15.10;64.30;;;;;;7379725;19;20513;-85
2022/10/11 23:02:52;;;;;;;16.58;6.20;;;15.10;64.30;;;;;;7367488;19;20011;-79
2022/10/11 23:05:21;;;;;;;16.70;5.97;;;15.10;64.20;;;;;;7366030;19;20321;-80
2022/10/11 23:07:50;;;;;;;16.75;5.65;;;15.10;64.20;;;;;;7391254;19;20022;-79
2022/10/11 23:10:19;;;;;;;14.35;6.22;;;15.00;64.50;;;;;;7370331;19;20017;-79
2022/10/11 23:12:50;;;;;;;19.05;5.43;;;15.00;64.40;;;;;;7369499;19;20029;-79
2022/10/11 23:15:19;;;;;;;11.40;5.88;;;14.90;64.50;;;;;;7366630;19;20082;-79
2022/10/11 23:17:48;;;;;;;18.27;5.45;;;15.00;64.50;;;;;;7369260;19;20078;-79
2022/10/11 23:20:17;;;;;;;14.02;5.90;;;15.00;64.40;;;;;;7366627;19;20102;-79
2022/10/11 23:22:45;;;;;;;16.55;5.68;;;14.90;64.30;;;;;;7389348;19;20025;-79
2022/10/11 23:25:14;;;;;;;13.05;4.97;;;14.90;64.50;;;;;;7368419;19;20025;-79
2022/10/11 23:27:43;;;;;;;16.45;4.82;;;14.90;64.50;;;;;;7366857;19;20022;-79
2022/10/11 23:30:15;;;;;;;14.63;4.90;;;14.90;64.50;;;;;;7367269;19;20023;-80
2022/10/11 23:32:44;;;;;;;13.95;4.85;;;14.80;64.40;;;;;;7369644;19;20097;-80
2022/10/11 23:35:13;;;;;;;11.10;4.75;;;14.80;64.30;;;;;;7366801;19;20365;-79
2022/10/11 23:37:41;;;;;;;14.70;5.07;;;14.80;64.10;;;;;;7388407;19;20014;-79
2022/10/11 23:40:14;;;;;;;11.52;4.57;;;14.80;64.10;;;;;;7368022;19;20760;-79
2022/10/11 23:42:44;;;;;;;14.80;5.07;;;14.80;65.00;;;;;;7368816;19;20017;-79
2022/10/11 23:45:15;;;;;;;15.73;4.95;;;14.80;64.10;;;;;;7366014;19;20154;-80
2022/10/11 23:47:45;;;;;;;12.93;5.05;;;14.80;64.00;;;;;;7368601;19;20603;-80
2022/10/11 23:52:57;;;;;;;13.68;4.80;;;14.80;64.00;;;;;;7389973;19;20019;-79
2022/10/11 23:55:26;;;;;;;17.23;5.47;;;14.80;64.00;;;;;;7366133;19;20019;-79
2022/10/11 23:57:55;;;;;;;14.68;4.40;;;14.80;64.00;;;;;;7366363;19;20468;-79
